Time;durP1;ratioP1;P1;durP2;ratioP2;P2;SDS_P1;SDS_P2;PMS_P1;PMS_P2;Temp;Humidity;BMP_temperature;BMP_pressure;BME280_temperature;BME280_humidity;BME280_pressure;Samples;Min_cycle;Max_cycle;Signal;HPM_P1;HPM_P2
2022/12/03 00:02:28;;;;;;;9.00;5.63;;;;;;;17.66;58.18;96506.88;10471840;28;20048;-31
2022/12/03 00:07:29;;;;;;;10.70;6.30;;;;;;;17.65;55.63;96502.69;10485744;28;20291;-29
2022/12/03 00:12:29;;;;;;;10.18;5.53;;;;;;;17.65;55.95;96494.25;10480702;28;20287;-29
2022/12/03 00:17:30;;;;;;;8.87;6.60;;;;;;;17.67;55.37;96503.50;10472065;28;20664;-29
2022/12/03 00:22:30;;;;;;;9.60;5.40;;;;;;;17.65;55.82;96490.00;10481372;28;20230;-29
2022/12/03 00:27:30;;;;;;;6.80;5.07;;;;;;;17.65;55.30;96494.25;10478684;28;20116;-29
2022/12/03 00:32:31;;;;;;;8.40;5.50;;;;;;;17.65;55.95;96491.72;10475224;28;20279;-29
2022/12/03 00:37:33;;;;;;;8.30;4.87;;;;;;;17.62;55.90;96497.63;10477536;28;20028;-29
2022/12/03 00:42:34;;;;;;;8.93;5.40;;;;;;;17.63;55.80;96501.84;10480023;28;20413;-30
2022/12/03 00:47:34;;;;;;;7.93;5.07;;;;;;;17.63;55.58;96503.50;10471931;28;20028;-29
2022/12/03 00:52:34;;;;;;;8.00;4.93;;;;;;;17.64;55.58;96507.72;10477876;28;20036;-30
2022/12/03 00:57:35;;;;;;;8.40;4.67;;;;;;;17.63;55.91;96503.50;10484710;28;20070;-29
2022/12/03 01:02:35;;;;;;;8.73;4.77;;;;;;;17.68;56.01;96504.38;10478887;28;20037;-30
2022/12/03 01:07:36;;;;;;;8.87;5.17;;;;;;;17.67;55.97;96508.56;10477990;28;20480;-29
2022/12/03 01:12:36;;;;;;;6.97;4.28;;;;;;;17.68;55.54;96502.66;10482862;28;20283;-30
2022/12/03 01:17:37;;;;;;;8.73;5.50;;;;;;;17.67;55.99;96505.22;10480440;28;20032;-29
2022/12/03 01:22:37;;;;;;;7.63;4.85;;;;;;;17.65;56.06;96504.38;10488729;28;20146;-29
2022/12/03 01:27:37;;;;;;;7.73;4.43;;;;;;;17.67;56.12;96503.50;10484563;28;20507;-29
2022/12/03 01:32:38;;;;;;;8.30;4.90;;;;;;;17.62;56.01;96487.50;10491196;28;20411;-29
2022/12/03 01:37:38;;;;;;;5.70;4.10;;;;;;;17.65;56.29;96499.31;10478234;28;20403;-29
2022/12/03 01:42:40;;;;;;;6.97;4.37;;;;;;;17.64;56.51;96502.66;10489844;28;20071;-29
2022/12/03 01:47:40;;;;;;;7.72;4.20;;;;;;;17.65;55.90;96495.09;10479521;28;20298;-29
2022/12/03 01:52:41;;;;;;;7.27;4.53;;;;;;;17.63;56.55;96490.84;10478235;28;20078;-29
2022/12/03 01:57:54;;;;;;;6.47;4.20;;;;;;;17.63;56.32;96500.97;10490864;28;20659;-30
2022/12/03 02:03:11;;;;;;;8.25;4.97;;;;;;;17.61;56.52;96503.53;10479091;28;20020;-29
2022/12/03 02:08:39;;;;;;;6.32;4.55;;;;;;;17.63;56.12;96500.97;10489663;28;20078;-30
2022/12/03 02:13:41;;;;;;;6.05;4.28;;;;;;;17.65;56.04;96505.19;10485118;28;20048;-29
2022/12/03 02:18:42;;;;;;;7.28;4.70;;;;;;;17.63;56.13;96493.38;10477128;28;20032;-30
2022/12/03 02:23:51;;;;;;;5.97;4.65;;;;;;;17.63;56.91;96500.97;10495918;28;20044;-30
2022/12/03 02:28:51;;;;;;;5.65;4.45;;;;;;;17.63;56.57;96500.97;10478536;28;20123;-29
2022/12/03 02:33:52;;;;;;;6.50;3.95;;;;;;;17.60;56.73;96503.53;10485175;28;20024;-29
2022/12/03 02:38:52;;;;;;;5.78;4.53;;;;;;;17.60;56.93;96498.47;10474826;28;20078;-29
2022/12/03 02:43:52;;;;;;;5.38;3.60;;;;;;;17.57;57.09;96499.28;10478596;28;20046;-30
2022/12/03 02:48:53;;;;;;;5.40;4.33;;;;;;;17.60;56.62;96498.47;10490173;28;20119;-30
2022/12/03 02:53:55;;;;;;;5.68;4.13;;;;;;;17.57;56.61;96506.06;10488225;28;20078;-30
2022/12/03 02:59:00;;;;;;;7.03;3.80;;;;;;;17.57;56.34;96503.53;10475644;28;20111;-29
2022/12/03 03:04:02;;;;;;;8.52;4.15;;;;;;;17.52;56.98;96497.63;10484601;28;20460;-29
2022/12/03 03:09:03;;;;;;;7.32;4.60;;;;;;;17.56;56.80;96509.44;10480540;28;20762;-29
2022/12/03 03:14:03;;;;;;;7.10;4.55;;;;;;;17.55;57.09;96507.72;10477145;28;20040;-30
2022/12/03 03:19:03;;;;;;;6.82;3.97;;;;;;;17.60;56.18;96506.06;10486984;28;20040;-29
2022/12/03 03:24:04;;;;;;;6.37;3.90;;;;;;;17.60;57.86;96493.41;10473548;28;20113;-31
2022/12/03 03:29:04;;;;;;;9.23;4.15;;;;;;;17.61;56.96;96492.56;10480870;28;20287;-29
2022/12/03 03:34:05;;;;;;;6.73;4.20;;;;;;;17.58;56.61;96495.09;10480987;28;20039;-29
2022/12/03 03:39:06;;;;;;;6.75;3.85;;;;;;;17.59;57.45;96484.13;10475041;28;20607;-29
2022/12/03 03:44:07;;;;;;;5.90;3.42;;;;;;;17.51;56.98;96480.75;10472067;28;20565;-30
2022/12/03 03:49:09;;;;;;;6.38;3.70;;;;;;;17.57;56.92;96493.41;10486495;28;20476;-30
2022/12/03 03:54:09;;;;;;;8.35;4.35;;;;;;;17.59;57.02;96484.13;10485734;28;20033;-29
2022/12/03 03:59:12;;;;;;;5.30;3.47;;;;;;;17.56;57.31;96479.91;10472425;28;20059;-30
2022/12/03 04:04:20;;;;;;;6.00;3.95;;;;;;;17.55;57.09;96467.22;10477751;28;20028;-29
2022/12/03 04:09:20;;;;;;;6.30;4.00;;;;;;;17.55;57.03;96464.69;10474065;28;20025;-30
2022/12/03 04:14:20;;;;;;;6.13;3.47;;;;;;;17.54;57.30;96460.47;10483966;28;20029;-29
2022/12/03 04:19:21;;;;;;;4.67;3.20;;;;;;;17.55;57.43;96452.91;10472375;28;20912;-29
2022/12/03 04:24:21;;;;;;;5.30;3.70;;;;;;;17.52;57.51;96449.53;10494433;28;20298;-29
2022/12/03 04:29:22;;;;;;;4.57;2.90;;;;;;;17.60;56.47;96452.91;10479499;28;21025;-29
2022/12/03 04:39:42;;;;;;;5.97;3.65;;;;;;;17.60;57.25;96468.09;10477619;28;20025;-30
2022/12/03 04:44:42;;;;;;;4.60;3.25;;;;;;;17.54;57.49;96460.47;10470646;28;20094;-30
2022/12/03 04:49:45;;;;;;;4.85;3.08;;;;;;;17.51;57.32;96470.63;10491493;28;20032;-31
2022/12/03 04:54:46;;;;;;;6.57;4.57;;;;;;;17.48;57.43;96456.28;10489854;28;20381;-30
2022/12/03 04:59:46;;;;;;;4.17;3.00;;;;;;;17.51;57.42;96450.38;10484703;28;20032;-31
2022/12/03 05:04:46;;;;;;;5.57;3.83;;;;;;;17.53;57.10;96454.59;10484449;28;20681;-29
2022/12/03 05:09:47;;;;;;;3.60;2.93;;;;;;;17.54;57.14;96456.28;10480833;28;20037;-29
2022/12/03 05:14:47;;;;;;;4.00;3.37;;;;;;;17.54;56.94;96441.09;10492648;28;20066;-29
2022/12/03 05:25:07;;;;;;;4.47;3.25;;;;;;;17.53;57.01;96458.81;10485978;28;20032;-30
2022/12/03 05:30:08;;;;;;;7.32;3.42;;;;;;;17.53;56.91;96466.41;10488234;28;20070;-29
2022/12/03 05:35:09;;;;;;;5.00;4.10;;;;;;;17.57;56.52;96476.53;10481357;28;20116;-29
2022/12/03 05:40:10;;;;;;;4.85;3.03;;;;;;;17.64;56.19;96482.41;10487031;28;20042;-29
2022/12/03 05:45:11;;;;;;;3.85;2.90;;;;;;;17.61;56.74;96487.50;10480731;28;20083;-30
2022/12/03 05:50:11;;;;;;;4.83;3.40;;;;;;;17.59;56.89;96484.13;10479230;28;20124;-29
2022/12/03 05:55:12;;;;;;;3.78;2.65;;;;;;;17.52;56.99;96479.91;10488630;28;20044;-29
2022/12/03 06:00:36;;;;;;;5.10;3.00;;;;;;;17.52;57.11;96487.50;10479886;28;20414;-29
2022/12/03 06:05:37;;;;;;;4.00;2.88;;;;;;;17.51;57.26;96478.22;10475129;28;20036;-29
2022/12/03 06:10:37;;;;;;;5.90;3.35;;;;;;;17.48;57.29;96478.22;10481556;28;20045;-29
2022/12/03 06:15:37;;;;;;;4.43;3.00;;;;;;;17.49;57.21;96474.84;10485833;28;20033;-30
2022/12/03 06:20:38;;;;;;;5.33;2.80;;;;;;;17.55;56.81;96487.47;10476974;28;20352;-30
2022/12/03 06:25:38;;;;;;;3.87;3.07;;;;;;;17.57;56.60;96491.72;10483879;28;20035;-29
2022/12/03 06:30:39;;;;;;;4.60;2.87;;;;;;;17.59;56.85;96495.06;10475785;28;20037;-29
2022/12/03 06:35:39;;;;;;;4.47;2.80;;;;;;;17.59;56.39;96494.25;10472310;28;20047;-30
2022/12/03 06:40:39;;;;;;;4.10;3.20;;;;;;;17.63;56.11;96500.97;10487465;28;20098;-29
2022/12/03 06:45:40;;;;;;;4.47;2.83;;;;;;;17.69;55.79;96503.53;10484774;28;20290;-29
2022/12/03 06:50:40;;;;;;;5.03;2.93;;;;;;;17.73;55.86;96497.63;10483235;28;20036;-30
2022/12/03 06:55:40;;;;;;;4.37;2.90;;;;;;;17.71;55.97;96502.69;10487643;28;20097;-30
2022/12/03 07:00:41;;;;;;;4.37;2.90;;;;;;;17.70;55.95;96482.41;10484003;28;20032;-29
2022/12/03 07:05:41;;;;;;;4.37;2.60;;;;;;;17.65;56.18;96486.66;10486705;28;20089;-30
2022/12/03 07:10:41;;;;;;;2.87;2.37;;;;;;;17.68;55.86;96492.53;10485465;28;20029;-29
2022/12/03 07:15:42;;;;;;;2.93;2.57;;;;;;;17.67;55.94;96492.56;10484238;28;20024;-29
2022/12/03 07:20:42;;;;;;;4.37;2.63;;;;;;;17.66;55.94;96486.63;10482385;28;20025;-30
2022/12/03 07:25:43;;;;;;;3.10;2.30;;;;;;;17.66;56.08;96483.28;10480680;28;20448;-29
2022/12/03 07:30:43;;;;;;;6.83;2.67;;;;;;;17.72;55.22;96479.03;10486442;28;20111;-29
2022/12/03 07:35:43;;;;;;;5.47;2.97;;;;;;;17.72;55.36;96481.56;10488906;28;20282;-29
2022/12/03 07:40:44;;;;;;;4.07;3.00;;;;;;;17.76;55.01;96482.41;10484650;28;20058;-30
2022/12/03 07:45:44;;;;;;;4.53;3.53;;;;;;;17.66;55.07;96485.81;10477271;28;20028;-29
2022/12/03 07:50:45;;;;;;;3.50;3.00;;;;;;;17.74;53.75;96474.00;10475332;28;20660;-31
2022/12/03 07:55:45;;;;;;;7.63;4.27;;;;;;;17.72;53.44;96475.66;10470911;28;20110;-29
2022/12/03 08:00:46;;;;;;;10.25;4.63;;;;;;;17.41;50.98;96471.47;10473653;28;20277;-30
2022/12/03 08:05:46;;;;;;;10.13;5.35;;;;;;;17.56;51.81;96479.06;10475917;28;20063;-29
2022/12/03 08:10:46;;;;;;;10.07;5.20;;;;;;;17.57;51.99;96473.16;10474752;28;20483;-29
2022/12/03 08:15:47;;;;;;;12.23;5.57;;;;;;;17.58;52.39;96464.72;10483894;28;20040;-29
2022/12/03 08:20:51;;;;;;;7.38;4.75;;;;;;;17.62;51.60;96471.44;10476158;28;20041;-29
2022/12/03 08:25:51;;;;;;;6.45;4.97;;;;;;;17.70;51.34;96462.16;10473843;28;20040;-29
2022/12/03 08:31:01;;;;;;;9.93;6.03;;;;;;;17.65;51.24;96453.75;10482480;28;20036;-28
2022/12/03 08:36:12;;;;;;;12.23;6.07;;;;;;;17.61;51.08;96452.03;10470200;28;20487;-29
2022/12/03 08:41:15;;;;;;;10.15;6.70;;;;;;;17.58;51.91;96447.00;10478519;28;20028;-31
2022/12/03 08:46:17;;;;;;;14.35;7.28;;;;;;;17.48;52.76;96440.28;10481008;28;20041;-29
2022/12/03 08:51:21;;;;;;;10.10;6.72;;;;;;;17.47;51.40;96436.88;10466225;28;20037;-29
2022/12/03 08:56:29;;;;;;;6.05;5.25;;;;;;;17.41;50.48;96431.81;10483041;28;20033;-30
2022/12/03 09:01:40;;;;;;;7.45;5.70;;;;;;;17.41;50.64;96446.16;10478249;28;20522;-29
2022/12/03 09:06:41;;;;;;;9.05;5.78;;;;;;;17.57;50.02;96445.31;10471697;28;20031;-29
2022/12/03 09:11:42;;;;;;;10.75;6.43;;;;;;;17.58;50.98;96447.00;10467679;28;20029;-29
2022/12/03 09:16:43;;;;;;;8.82;5.80;;;;;;;17.55;50.77;96452.91;10470674;28;20091;-30
2022/12/03 09:21:43;;;;;;;8.90;5.70;;;;;;;17.56;50.59;96451.22;10481366;28;20039;-29
2022/12/03 09:26:43;;;;;;;10.80;6.10;;;;;;;17.57;50.72;96460.50;10473083;28;20024;-29
2022/12/03 09:31:44;;;;;;;9.63;6.32;;;;;;;17.58;50.62;96454.59;10472479;28;20685;-29
2022/12/03 09:36:44;;;;;;;8.23;5.90;;;;;;;17.60;50.16;96465.56;10477669;28;20399;-29
2022/12/03 09:41:45;;;;;;;7.90;6.20;;;;;;;17.62;50.41;96457.13;10493158;28;20283;-29
2022/12/03 09:46:47;;;;;;;7.68;5.70;;;;;;;17.58;50.27;96447.81;10486085;28;20526;-29
2022/12/03 09:51:47;;;;;;;12.00;6.03;;;;;;;17.68;48.89;96446.13;10492334;28;20025;-29
2022/12/03 09:56:47;;;;;;;7.30;5.43;;;;;;;17.74;48.47;96438.53;10492447;28;20028;-29
2022/12/03 10:01:48;;;;;;;11.47;6.00;;;;;;;17.75;49.84;96425.03;10488635;28;20290;-29
2022/12/03 10:06:49;;;;;;;15.17;6.10;;;;;;;17.65;51.69;96428.44;10485927;28;20052;-30
2022/12/03 10:11:50;;;;;;;10.00;5.68;;;;;;;17.70;50.51;96421.66;10492663;28;20035;-29
2022/12/03 10:16:50;;;;;;;9.82;6.68;;;;;;;17.65;50.16;96419.13;10486594;28;20024;-28
2022/12/03 10:21:51;;;;;;;21.80;6.68;;;;;;;17.73;48.75;96412.38;10480117;28;20140;-29
2022/12/03 10:26:55;;;;;;;12.25;6.65;;;;;;;17.72;51.93;96404.75;10478934;28;20455;-30
2022/12/03 10:32:08;;;;;;;11.20;9.38;;;;;;;17.60;48.71;96404.81;10482234;28;20032;-30
2022/12/03 10:37:09;;;;;;;15.00;7.85;;;;;;;17.62;49.47;96398.03;10482952;28;20373;-29
2022/12/03 10:42:14;;;;;;;9.25;7.13;;;;;;;17.65;50.30;96396.34;10486113;28;20569;-29
2022/12/03 10:47:15;;;;;;;9.18;6.55;;;;;;;17.64;50.13;96392.13;10472886;28;20036;-29
2022/12/03 10:52:21;;;;;;;8.67;6.37;;;;;;;17.61;47.99;96386.22;10477797;28;20443;-29
2022/12/03 10:57:22;;;;;;;12.43;6.03;;;;;;;17.62;48.63;96381.19;10476906;28;20324;-29
2022/12/03 11:02:23;;;;;;;8.77;6.70;;;;;;;17.48;48.35;96364.34;10499735;28;20043;-28
2022/12/03 11:07:25;;;;;;;7.70;5.80;;;;;;;17.49;47.28;96360.97;10478218;28;20032;-29
2022/12/03 11:12:27;;;;;;;7.70;6.35;;;;;;;17.45;47.44;96357.59;10478685;28;20048;-29
2022/12/03 11:17:48;;;;;;;13.57;7.47;;;;;;;17.13;45.74;96366.00;10479504;28;20032;-29
2022/12/03 11:22:56;;;;;;;8.48;6.53;;;;;;;17.37;47.15;96355.91;10473360;28;20048;-30
2022/12/03 11:28:09;;;;;;;11.93;7.03;;;;;;;17.46;47.49;96349.16;10478352;28;20483;-29
2022/12/03 11:33:28;;;;;;;8.95;5.45;;;;;;;17.51;48.17;96344.06;10481170;28;20064;-29
2022/12/03 11:38:52;;;;;;;11.90;6.20;;;;;;;17.47;49.22;96342.38;10477533;28;20036;-28
2022/12/03 11:43:54;;;;;;;8.00;5.60;;;;;;;17.44;48.92;96337.34;10482047;28;20116;-29
2022/12/03 11:48:57;;;;;;;7.38;4.80;;;;;;;17.41;49.55;96319.66;10473407;28;20070;-29
2022/12/03 11:53:59;;;;;;;6.95;5.68;;;;;;;17.45;49.72;96331.44;10486091;28;20043;-29
2022/12/03 11:59:02;;;;;;;5.28;4.50;;;;;;;17.43;49.55;96330.59;10474219;28;20033;-29
2022/12/03 12:04:03;;;;;;;5.95;4.85;;;;;;;17.42;49.33;96319.63;10482244;28;20074;-30
2022/12/03 12:09:03;;;;;;;6.57;4.97;;;;;;;17.44;49.57;96317.09;10474994;28;20119;-29
2022/12/03 12:14:05;;;;;;;5.83;4.60;;;;;;;17.38;49.72;96312.03;10475779;28;20051;-30
2022/12/03 12:19:33;;;;;;;7.75;4.22;;;;;;;17.38;49.53;96302.78;10476849;28;20039;-29
2022/12/03 12:24:41;;;;;;;5.40;4.40;;;;;;;17.38;49.61;96304.44;10481842;28;20041;-30
2022/12/03 12:29:45;;;;;;;5.90;4.75;;;;;;;17.36;49.85;96303.63;10473378;28;20508;-29
2022/12/03 12:34:48;;;;;;;4.93;4.38;;;;;;;17.37;49.44;96290.97;10474900;28;20037;-29
2022/12/03 12:39:53;;;;;;;5.60;4.30;;;;;;;17.45;49.80;96298.53;10479355;28;20037;-29
2022/12/03 12:44:56;;;;;;;7.72;4.50;;;;;;;17.48;49.90;96288.41;10473497;28;20044;-31
2022/12/03 12:49:57;;;;;;;3.95;3.63;;;;;;;17.36;50.93;96280.84;10472657;28;20028;-29
2022/12/03 12:54:57;;;;;;;5.15;4.32;;;;;;;17.36;50.45;96273.25;10481656;28;20072;-29
2022/12/03 12:59:58;;;;;;;5.07;4.38;;;;;;;17.34;50.15;96264.81;10469337;28;20082;-31
2022/12/03 13:05:01;;;;;;;5.93;4.67;;;;;;;17.33;50.23;96253.00;10484498;28;20093;-29
2022/12/03 13:10:23;;;;;;;5.32;4.35;;;;;;;17.35;50.77;96251.31;10479438;28;20348;-29
2022/12/03 13:16:08;;;;;;;4.00;3.60;;;;;;;17.28;50.54;96250.47;10489385;28;20044;-29
2022/12/03 13:21:39;;;;;;;5.65;4.10;;;;;;;17.30;50.81;96253.84;10348958;28;20641;-31
2022/12/03 13:26:40;;;;;;;5.53;3.75;;;;;;;17.30;50.45;96258.03;10464824;28;20530;-29
2022/12/03 13:31:54;;;;;;;4.78;3.75;;;;;;;17.29;50.77;96261.44;10490919;28;20048;-30
2022/12/03 13:36:54;;;;;;;4.72;3.75;;;;;;;17.29;50.14;96261.44;10476669;28;20022;-29
2022/12/03 13:47:19;;;;;;;4.80;3.88;;;;;;;17.33;51.20;96247.94;10481783;28;20040;-31
2022/12/03 13:52:22;;;;;;;4.28;3.85;;;;;;;17.31;53.18;96242.88;10491882;28;20526;-30
2022/12/03 13:57:23;;;;;;;4.53;3.72;;;;;;;17.25;52.16;96237.00;10479989;28;20403;-29
2022/12/03 14:02:23;;;;;;;4.85;4.35;;;;;;;17.24;52.05;96243.72;10482876;28;20037;-29
2022/12/03 14:07:23;;;;;;;6.37;4.10;;;;;;;17.21;51.53;96251.34;10482913;28;20041;-29
2022/12/03 14:12:29;;;;;;;4.23;3.83;;;;;;;17.18;51.66;96248.84;10484241;28;20297;-28
2022/12/03 14:17:30;;;;;;;4.97;4.32;;;;;;;17.19;51.64;96250.50;10480610;28;20033;-29
2022/12/03 14:22:30;;;;;;;4.50;4.03;;;;;;;17.19;51.75;96247.13;10473620;28;20032;-29
2022/12/03 14:27:31;;;;;;;4.63;3.80;;;;;;;17.18;51.25;96258.94;10481888;28;20040;-29
2022/12/03 14:32:31;;;;;;;4.43;4.03;;;;;;;17.16;51.17;96255.56;10483864;28;20290;-30
2022/12/03 14:37:32;;;;;;;4.30;3.77;;;;;;;17.16;51.58;96259.78;10474484;28;20029;-30
2022/12/03 14:42:35;;;;;;;4.13;3.70;;;;;;;17.15;51.32;96264.00;10485047;28;20086;-30
2022/12/03 14:47:35;;;;;;;4.13;3.40;;;;;;;17.15;51.58;96268.22;10475795;28;20047;-29
2022/12/03 14:52:37;;;;;;;4.93;3.95;;;;;;;17.15;51.84;96273.28;10481189;28;20043;-30
2022/12/03 14:57:37;;;;;;;4.20;3.78;;;;;;;17.18;51.80;96284.25;10476229;28;20505;-29
2022/12/03 15:02:38;;;;;;;4.80;3.47;;;;;;;17.17;53.14;96276.66;10487404;28;20048;-29
2022/12/03 15:07:38;;;;;;;4.20;3.53;;;;;;;17.18;52.66;96273.28;10477007;28;20048;-29
2022/12/03 15:12:38;;;;;;;3.95;3.55;;;;;;;17.14;52.67;96264.03;10481513;28;20036;-29
2022/12/03 15:17:39;;;;;;;3.93;3.50;;;;;;;17.12;52.35;96263.16;10488563;28;20036;-30
2022/12/03 15:22:39;;;;;;;3.50;3.20;;;;;;;17.07;52.15;96259.81;10472958;28;20037;-30
2022/12/03 15:27:40;;;;;;;5.13;3.87;;;;;;;17.04;52.38;96249.69;10487621;28;20032;-29
2022/12/03 15:32:40;;;;;;;3.47;3.17;;;;;;;17.07;51.74;96260.63;10483604;28;20047;-29
2022/12/03 15:37:41;;;;;;;4.33;3.73;;;;;;;17.07;51.96;96252.22;10470782;28;20032;-29
2022/12/03 15:42:42;;;;;;;3.63;3.30;;;;;;;17.07;51.96;96259.81;10482387;28;20294;-30
2022/12/03 15:47:43;;;;;;;4.03;3.67;;;;;;;17.07;52.29;96247.16;10473262;28;20047;-29
2022/12/03 15:52:43;;;;;;;4.07;3.67;;;;;;;16.93;52.32;96221.91;10483557;28;20037;-30
2022/12/03 15:57:44;;;;;;;3.83;3.43;;;;;;;17.01;51.86;96235.38;10476225;28;20496;-29
2022/12/03 16:02:44;;;;;;;3.63;3.20;;;;;;;17.04;52.00;96242.09;10481015;28;20431;-29
2022/12/03 16:07:44;;;;;;;3.93;3.33;;;;;;;17.10;52.38;96237.03;10476841;28;20029;-30
2022/12/03 16:12:45;;;;;;;3.67;3.25;;;;;;;17.09;52.82;96232.81;10478167;28;20307;-29
2022/12/03 16:17:45;;;;;;;3.60;3.28;;;;;;;17.09;53.63;96226.06;10476265;28;20025;-29
2022/12/03 16:22:46;;;;;;;3.53;3.23;;;;;;;17.07;52.33;96237.06;10474099;28;20409;-29
2022/12/03 16:27:46;;;;;;;3.43;2.87;;;;;;;17.03;52.17;96222.72;10485476;28;20412;-31
2022/12/03 16:33:04;;;;;;;3.60;2.95;;;;;;;16.99;52.57;96211.75;10442196;28;20305;-29
2022/12/03 16:38:05;;;;;;;3.20;2.90;;;;;;;17.02;51.70;96221.03;10469225;28;20029;-29
2022/12/03 16:43:07;;;;;;;3.30;3.00;;;;;;;17.00;51.38;96208.38;10478891;28;20037;-29
2022/12/03 16:48:08;;;;;;;3.35;3.05;;;;;;;17.00;51.95;96208.38;10477765;28;20319;-28
2022/12/03 16:53:09;;;;;;;3.33;3.03;;;;;;;16.99;51.36;96213.47;10484859;28;20120;-29
2022/12/03 16:58:09;;;;;;;3.70;3.40;;;;;;;16.93;51.59;96203.34;10476427;28;20048;-29
2022/12/03 17:03:09;;;;;;;3.60;3.20;;;;;;;16.98;51.75;96217.66;10472573;28;20033;-29
2022/12/03 17:08:11;;;;;;;2.90;2.70;;;;;;;16.95;51.58;96202.50;10481071;28;20043;-29
2022/12/03 17:13:11;;;;;;;3.35;3.05;;;;;;;16.98;51.59;96211.78;10479112;28;20507;-29
2022/12/03 17:18:11;;;;;;;3.30;3.00;;;;;;;16.98;51.27;96209.25;10476281;28;20033;-30
2022/12/03 17:23:12;;;;;;;3.30;3.00;;;;;;;17.01;51.95;96199.13;10471458;28;20120;-30
2022/12/03 17:28:12;;;;;;;4.03;3.28;;;;;;;17.02;53.09;96195.75;10484625;28;20290;-30
2022/12/03 17:33:13;;;;;;;3.20;2.90;;;;;;;16.99;52.51;96193.25;10480450;28;20526;-29
2022/12/03 17:38:13;;;;;;;3.20;2.90;;;;;;;16.99;52.09;96196.59;10469190;28;20047;-29
2022/12/03 17:43:13;;;;;;;2.90;2.70;;;;;;;17.00;51.86;96189.88;10473403;28;20044;-29
2022/12/03 17:48:14;;;;;;;3.13;2.83;;;;;;;16.97;51.04;96188.19;10471734;28;20099;-29
2022/12/03 17:53:14;;;;;;;3.38;3.08;;;;;;;16.98;50.84;96194.09;10482870;28;20039;-29
2022/12/03 17:58:15;;;;;;;3.00;2.70;;;;;;;16.98;50.64;96191.56;10476641;28;20600;-30
2022/12/03 18:03:15;;;;;;;3.40;3.10;;;;;;;16.95;50.08;96194.06;10477973;28;20434;-30
2022/12/03 18:08:15;;;;;;;3.10;2.80;;;;;;;16.93;50.65;96195.78;10484422;28;20037;-29
2022/12/03 18:13:16;;;;;;;3.23;2.93;;;;;;;16.93;50.48;96196.63;10480559;28;20033;-31
2022/12/03 18:18:16;;;;;;;3.60;3.00;;;;;;;16.94;50.47;96192.41;10483850;28;20028;-29
2022/12/03 18:23:17;;;;;;;3.23;2.63;;;;;;;16.93;50.20;96185.66;10476617;28;20287;-29
2022/12/03 18:28:17;;;;;;;3.45;2.97;;;;;;;16.90;50.38;96186.50;10489078;28;20032;-30
2022/12/03 18:33:20;;;;;;;3.20;2.90;;;;;;;16.92;52.76;96186.50;10484394;28;20056;-29
2022/12/03 18:38:24;;;;;;;3.42;3.03;;;;;;;16.92;52.88;96192.38;10477050;28;20032;-29
2022/12/03 18:43:27;;;;;;;3.50;3.05;;;;;;;16.95;52.78;96189.88;10480236;28;20489;-29
2022/12/03 18:48:27;;;;;;;3.63;3.08;;;;;;;16.90;51.82;96176.38;10476930;28;20048;-28
2022/12/03 18:53:27;;;;;;;3.33;3.03;;;;;;;16.94;51.72;96187.34;10488919;28;20049;-28
2022/12/03 18:58:28;;;;;;;3.30;3.00;;;;;;;16.95;50.39;96183.97;10475870;28;20078;-29
2022/12/03 19:03:28;;;;;;;3.43;3.07;;;;;;;16.92;49.47;96182.28;10477334;28;20290;-28
2022/12/03 19:08:29;;;;;;;3.63;3.25;;;;;;;16.96;48.41;96181.44;10481565;28;20115;-29
2022/12/03 19:13:29;;;;;;;3.30;3.00;;;;;;;16.90;48.96;96167.97;10481999;28;20525;-30
2022/12/03 19:18:30;;;;;;;3.67;2.97;;;;;;;16.95;46.96;96183.97;10481244;28;20032;-29
2022/12/03 19:23:30;;;;;;;3.20;2.90;;;;;;;16.90;48.98;96185.69;10474748;28;20120;-30
2022/12/03 19:28:30;;;;;;;3.87;3.47;;;;;;;16.92;47.26;96189.88;10484604;28;20037;-30
2022/12/03 19:33:32;;;;;;;3.33;3.00;;;;;;;16.87;48.97;96186.53;10483551;28;20131;-29
2022/12/03 19:38:33;;;;;;;3.33;2.78;;;;;;;16.88;48.72;96174.69;10470426;28;20635;-29
2022/12/03 19:43:35;;;;;;;4.45;3.72;;;;;;;16.91;47.64;96174.72;10477927;28;20029;-30
2022/12/03 19:48:37;;;;;;;3.83;3.42;;;;;;;16.86;51.54;96171.34;10474176;28;20029;-30
2022/12/03 19:53:39;;;;;;;3.70;3.17;;;;;;;16.88;52.11;96174.69;10486701;28;20044;-29
2022/12/03 19:58:41;;;;;;;3.72;3.20;;;;;;;16.88;52.36;96169.66;10474436;28;20032;-30
2022/12/03 20:03:43;;;;;;;3.28;3.00;;;;;;;16.85;51.38;96168.00;10485745;28;20500;-29
2022/12/03 20:08:45;;;;;;;4.10;3.55;;;;;;;16.89;49.73;96171.34;10476588;28;20039;-29
2022/12/03 20:13:46;;;;;;;4.38;3.90;;;;;;;16.89;48.44;96173.88;10476326;28;20040;-30
2022/12/03 20:18:47;;;;;;;4.07;3.63;;;;;;;16.88;47.11;96173.03;10478027;28;20040;-29
2022/12/03 20:23:48;;;;;;;3.83;3.53;;;;;;;16.87;46.29;96185.66;10472017;28;20040;-29
2022/12/03 20:28:51;;;;;;;4.17;3.50;;;;;;;16.88;46.89;96187.34;10485904;28;20492;-28
2022/12/03 20:33:55;;;;;;;4.10;3.70;;;;;;;16.89;46.32;96176.41;10480928;28;20971;-29
2022/12/03 20:38:58;;;;;;;4.43;3.72;;;;;;;16.89;46.21;96184.00;10473179;28;20032;-29
2022/12/03 20:43:58;;;;;;;4.28;3.60;;;;;;;16.67;46.57;96146.97;10475489;28;20656;-29
2022/12/03 20:48:59;;;;;;;4.78;3.75;;;;;;;16.89;45.70;96177.25;10472484;28;20044;-29
2022/12/03 20:54:00;;;;;;;5.43;3.92;;;;;;;16.88;45.19;96174.69;10483889;28;20187;-30
2022/12/03 20:59:06;;;;;;;3.88;3.45;;;;;;;16.88;46.70;96172.19;10474192;28;20033;-29
2022/12/03 21:04:07;;;;;;;3.15;2.85;;;;;;;16.75;51.30;96161.25;10480984;28;20037;-30
2022/12/03 21:09:09;;;;;;;3.05;2.75;;;;;;;16.83;51.77;96158.72;10475029;28;20044;-29
2022/12/03 21:14:10;;;;;;;3.13;2.83;;;;;;;16.78;51.87;96165.47;10461876;28;20044;-29
2022/12/03 21:19:10;;;;;;;3.63;3.28;;;;;;;16.73;50.48;96134.31;10481565;28;20049;-29
2022/12/03 21:24:12;;;;;;;3.65;3.33;;;;;;;16.80;47.63;96151.13;10475190;28;20446;-29
2022/12/03 21:29:12;;;;;;;4.00;3.50;;;;;;;16.82;46.54;96147.75;10485634;28;20039;-31
2022/12/03 21:34:13;;;;;;;4.13;3.73;;;;;;;16.79;45.38;96157.03;10485618;28;20374;-29
2022/12/03 21:39:13;;;;;;;4.28;3.55;;;;;;;16.82;46.09;96157.03;10481277;28;20551;-30
2022/12/03 21:44:13;;;;;;;3.58;3.25;;;;;;;16.83;45.38;96148.63;10475076;28;20325;-29
2022/12/03 21:49:15;;;;;;;3.50;3.20;;;;;;;16.82;44.88;96139.34;10491815;28;20037;-29
2022/12/03 21:54:15;;;;;;;4.15;3.63;;;;;;;16.77;45.06;96125.06;10490532;28;20040;-29
2022/12/03 21:59:15;;;;;;;3.20;2.90;;;;;;;16.80;45.71;96120.78;10486642;28;20025;-29
2022/12/03 22:04:16;;;;;;;3.20;2.90;;;;;;;16.81;44.85;96119.97;10485781;28;20287;-28
2022/12/03 22:09:16;;;;;;;4.00;3.33;;;;;;;16.78;44.84;96112.38;10481411;28;20086;-28
2022/12/03 22:14:17;;;;;;;3.07;2.77;;;;;;;16.77;49.47;96119.16;10476649;28;20361;-29
2022/12/03 22:19:21;;;;;;;2.75;2.55;;;;;;;16.74;51.59;96123.38;10480292;28;20063;-29
2022/12/03 22:24:22;;;;;;;3.13;2.83;;;;;;;16.75;51.41;96122.50;10480253;28;20047;-29
2022/12/03 22:29:23;;;;;;;3.00;2.70;;;;;;;16.70;51.33;96139.38;10486183;28;20072;-28
2022/12/03 22:34:23;;;;;;;3.07;2.80;;;;;;;16.70;50.20;96130.97;10481507;28;20565;-29
2022/12/03 22:39:23;;;;;;;3.47;2.92;;;;;;;16.75;46.57;96137.69;10479930;28;20286;-29
2022/12/03 22:44:24;;;;;;;3.87;3.07;;;;;;;16.73;45.73;96136.84;10477085;28;20431;-29
2022/12/03 22:49:24;;;;;;;3.47;3.17;;;;;;;16.76;45.09;96146.94;10486477;28;20048;-29
2022/12/03 22:54:25;;;;;;;3.75;3.40;;;;;;;16.76;45.49;96144.41;10484530;28;20283;-29
2022/12/03 22:59:25;;;;;;;3.30;3.00;;;;;;;16.75;44.96;96150.31;10484808;28;20033;-28
2022/12/03 23:04:26;;;;;;;3.07;2.77;;;;;;;16.76;44.23;96144.41;10480125;28;20047;-29
2022/12/03 23:09:26;;;;;;;3.93;3.33;;;;;;;16.74;44.65;96139.34;10475703;28;20045;-29
2022/12/03 23:14:26;;;;;;;3.17;2.87;;;;;;;16.75;44.34;96145.25;10483028;28;20867;-29
2022/12/03 23:19:27;;;;;;;3.33;2.97;;;;;;;16.74;44.46;96139.34;10475396;28;20789;-28
2022/12/03 23:24:27;;;;;;;3.50;3.20;;;;;;;16.73;44.74;96145.25;10475755;28;20639;-29
2022/12/03 23:29:28;;;;;;;3.60;3.28;;;;;;;16.66;50.47;96140.22;10482778;28;20290;-28
2022/12/03 23:34:28;;;;;;;2.77;2.57;;;;;;;16.69;51.17;96135.16;10480580;28;20043;-29
2022/12/03 23:39:29;;;;;;;3.20;2.67;;;;;;;16.68;51.38;96138.53;10478826;28;20036;-29